sensor_id;sensor_type;location;lat;lon;timestamp;pressure;altitude;pressure_sealevel;temperature;humidity
65659;BME280;60181;53.258;6.932;2023-05-19T00:02:04;103060.00;;;16.10;57.40
65659;BME280;60181;53.258;6.932;2023-05-19T00:06:07;103060.12;;;16.09;57.67
65659;BME280;60181;53.258;6.932;2023-05-19T00:10:12;103060.31;;;16.07;57.61
65659;BME280;60181;53.258;6.932;2023-05-19T00:14:15;103059.94;;;16.06;57.58
65659;BME280;60181;53.258;6.932;2023-05-19T00:18:19;103058.91;;;16.05;57.77
65659;BME280;60181;53.258;6.932;2023-05-19T00:22:23;103057.54;;;16.04;57.65
65659;BME280;60181;53.258;6.932;2023-05-19T00:26:27;103055.59;;;16.03;57.92
65659;BME280;60181;53.258;6.932;2023-05-19T00:30:31;103053.69;;;16.03;57.79
65659;BME280;60181;53.258;6.932;2023-05-19T00:34:35;103051.75;;;16.02;57.72
65659;BME280;60181;53.258;6.932;2023-05-19T00:38:39;103047.86;;;16.02;57.64
65659;BME280;60181;53.258;6.932;2023-05-19T00:42:43;103043.14;;;16.00;57.71
65659;BME280;60181;53.258;6.932;2023-05-19T00:46:47;103038.72;;;15.99;57.83
65659;BME280;60181;53.258;6.932;2023-05-19T00:50:52;103035.90;;;15.98;57.78
65659;BME280;60181;53.258;6.932;2023-05-19T00:54:55;103033.04;;;15.97;57.99
65659;BME280;60181;53.258;6.932;2023-05-19T00:58:59;103030.57;;;15.95;58.20
65659;BME280;60181;53.258;6.932;2023-05-19T01:03:04;103029.36;;;15.94;58.35
65659;BME280;60181;53.258;6.932;2023-05-19T01:07:07;103026.83;;;15.93;58.60
65659;BME280;60181;53.258;6.932;2023-05-19T01:11:11;103022.73;;;15.92;58.55
65659;BME280;60181;53.258;6.932;2023-05-19T01:15:15;103019.68;;;15.92;58.60
65659;BME280;60181;53.258;6.932;2023-05-19T01:31:31;103010.71;;;15.90;58.87
65659;BME280;60181;53.258;6.932;2023-05-19T01:35:36;103010.46;;;15.91;58.93
65659;BME280;60181;53.258;6.932;2023-05-19T01:39:39;103010.42;;;15.92;58.94
65659;BME280;60181;53.258;6.932;2023-05-19T01:43:43;103009.59;;;15.92;58.84
65659;BME280;60181;53.258;6.932;2023-05-19T01:47:49;103008.52;;;15.92;58.66
65659;BME280;60181;53.258;6.932;2023-05-19T01:51:51;103007.36;;;15.92;58.84
65659;BME280;60181;53.258;6.932;2023-05-19T01:55:55;103006.32;;;15.91;58.71
65659;BME280;60181;53.258;6.932;2023-05-19T02:00:15;103005.08;;;15.90;58.72
65659;BME280;60181;53.258;6.932;2023-05-19T02:04:12;103002.81;;;15.90;58.54
65659;BME280;60181;53.258;6.932;2023-05-19T02:08:11;103000.12;;;15.89;58.63
65659;BME280;60181;53.258;6.932;2023-05-19T02:12:27;102996.97;;;15.88;58.51
65659;BME280;60181;53.258;6.932;2023-05-19T02:16:15;102993.21;;;15.87;58.50
65659;BME280;60181;53.258;6.932;2023-05-19T02:20:19;102988.79;;;15.86;58.29
65659;BME280;60181;53.258;6.932;2023-05-19T02:24:23;102986.22;;;15.86;58.12
65659;BME280;60181;53.258;6.932;2023-05-19T02:28:27;102982.58;;;15.86;58.08
65659;BME280;60181;53.258;6.932;2023-05-19T02:32:31;102980.57;;;15.86;58.35
65659;BME280;60181;53.258;6.932;2023-05-19T02:36:35;102979.36;;;15.86;58.28
65659;BME280;60181;53.258;6.932;2023-05-19T02:40:39;102977.10;;;15.87;58.60
65659;BME280;60181;53.258;6.932;2023-05-19T02:44:43;102974.88;;;15.88;59.03
65659;BME280;60181;53.258;6.932;2023-05-19T02:48:47;102972.27;;;15.88;59.04
65659;BME280;60181;53.258;6.932;2023-05-19T02:52:51;102971.11;;;15.88;59.23
65659;BME280;60181;53.258;6.932;2023-05-19T02:56:55;102971.07;;;15.88;59.09
65659;BME280;60181;53.258;6.932;2023-05-19T03:00:59;102968.75;;;15.88;59.11
65659;BME280;60181;53.258;6.932;2023-05-19T03:05:03;102966.28;;;15.88;59.19
65659;BME280;60181;53.258;6.932;2023-05-19T03:09:07;102963.88;;;15.89;58.88
65659;BME280;60181;53.258;6.932;2023-05-19T03:13:11;102962.18;;;15.91;59.06
65659;BME280;60181;53.258;6.932;2023-05-19T03:17:15;102960.99;;;15.91;59.05
65659;BME280;60181;53.258;6.932;2023-05-19T03:21:19;102961.36;;;15.91;60.40
65659;BME280;60181;53.258;6.932;2023-05-19T03:25:23;102962.77;;;15.93;58.83
65659;BME280;60181;53.258;6.932;2023-05-19T03:29:27;102964.01;;;15.93;58.28
65659;BME280;60181;53.258;6.932;2023-05-19T03:33:31;102966.25;;;15.93;58.23
65659;BME280;60181;53.258;6.932;2023-05-19T03:37:35;102967.61;;;15.92;58.52
65659;BME280;60181;53.258;6.932;2023-05-19T03:41:39;102969.59;;;15.92;57.93
65659;BME280;60181;53.258;6.932;2023-05-19T03:45:43;102970.67;;;15.92;57.61
65659;BME280;60181;53.258;6.932;2023-05-19T03:49:47;102970.79;;;15.91;57.24
65659;BME280;60181;53.258;6.932;2023-05-19T03:53:51;102970.08;;;15.90;57.36
65659;BME280;60181;53.258;6.932;2023-05-19T03:57:55;102970.37;;;15.89;57.11
65659;BME280;60181;53.258;6.932;2023-05-19T04:01:59;102969.70;;;15.88;57.18
65659;BME280;60181;53.258;6.932;2023-05-19T04:06:03;102969.32;;;15.87;57.14
65659;BME280;60181;53.258;6.932;2023-05-19T04:10:07;102969.37;;;15.88;57.14
65659;BME280;60181;53.258;6.932;2023-05-19T04:14:11;102970.08;;;15.90;56.76
65659;BME280;60181;53.258;6.932;2023-05-19T04:18:15;102971.08;;;15.91;56.72
65659;BME280;60181;53.258;6.932;2023-05-19T04:22:19;102972.49;;;15.94;56.61
65659;BME280;60181;53.258;6.932;2023-05-19T04:26:23;102974.19;;;15.97;56.10
65659;BME280;60181;53.258;6.932;2023-05-19T04:30:27;102977.27;;;16.02;56.01
65659;BME280;60181;53.258;6.932;2023-05-19T04:34:31;102979.42;;;16.06;55.96
65659;BME280;60181;53.258;6.932;2023-05-19T04:38:35;102981.38;;;16.12;56.31
65659;BME280;60181;53.258;6.932;2023-05-19T04:42:39;102984.00;;;16.19;56.53
65659;BME280;60181;53.258;6.932;2023-05-19T04:46:43;102985.72;;;16.26;56.15
65659;BME280;60181;53.258;6.932;2023-05-19T04:50:47;102986.22;;;16.30;56.22
65659;BME280;60181;53.258;6.932;2023-05-19T04:54:51;102985.06;;;16.32;56.35
65659;BME280;60181;53.258;6.932;2023-05-19T04:58:55;102984.24;;;16.34;56.40
65659;BME280;60181;53.258;6.932;2023-05-19T05:02:59;102984.38;;;16.38;57.18
65659;BME280;60181;53.258;6.932;2023-05-19T05:07:03;102985.33;;;16.41;57.26
65659;BME280;60181;53.258;6.932;2023-05-19T05:11:07;102984.70;;;16.44;57.22
65659;BME280;60181;53.258;6.932;2023-05-19T05:15:11;102983.72;;;16.46;57.32
65659;BME280;60181;53.258;6.932;2023-05-19T05:19:15;102983.04;;;16.48;57.45
65659;BME280;60181;53.258;6.932;2023-05-19T05:23:19;102982.69;;;16.49;57.67
65659;BME280;60181;53.258;6.932;2023-05-19T05:27:23;102984.47;;;16.51;57.41
65659;BME280;60181;53.258;6.932;2023-05-19T05:31:27;102985.30;;;16.51;57.49
65659;BME280;60181;53.258;6.932;2023-05-19T05:35:31;102986.21;;;16.51;57.47
65659;BME280;60181;53.258;6.932;2023-05-19T05:39:35;102987.68;;;16.51;57.44
65659;BME280;60181;53.258;6.932;2023-05-19T05:43:39;102989.31;;;16.50;57.53
65659;BME280;60181;53.258;6.932;2023-05-19T05:47:43;102990.42;;;16.49;57.36
65659;BME280;60181;53.258;6.932;2023-05-19T05:51:47;102992.65;;;16.48;57.40
65659;BME280;60181;53.258;6.932;2023-05-19T05:55:51;102994.69;;;16.48;57.29
65659;BME280;60181;53.258;6.932;2023-05-19T05:59:55;102995.80;;;16.46;56.98
65659;BME280;60181;53.258;6.932;2023-05-19T06:03:59;102996.25;;;16.49;56.63
65659;BME280;60181;53.258;6.932;2023-05-19T06:08:03;102995.59;;;16.54;56.44
65659;BME280;60181;53.258;6.932;2023-05-19T06:12:07;102995.85;;;16.56;56.38
65659;BME280;60181;53.258;6.932;2023-05-19T06:16:11;102997.80;;;16.62;55.72
65659;BME280;60181;53.258;6.932;2023-05-19T06:20:15;102999.77;;;16.62;56.31
65659;BME280;60181;53.258;6.932;2023-05-19T06:24:19;103001.93;;;16.60;56.20
65659;BME280;60181;53.258;6.932;2023-05-19T06:28:23;103003.25;;;16.57;56.21
65659;BME280;60181;53.258;6.932;2023-05-19T06:32:27;103003.98;;;16.55;56.13
65659;BME280;60181;53.258;6.932;2023-05-19T06:36:31;103005.35;;;16.52;56.15
65659;BME280;60181;53.258;6.932;2023-05-19T06:40:35;103008.17;;;16.52;55.91
65659;BME280;60181;53.258;6.932;2023-05-19T06:44:39;103009.58;;;16.57;54.87
65659;BME280;60181;53.258;6.932;2023-05-19T06:48:43;103011.49;;;16.69;53.96
65659;BME280;60181;53.258;6.932;2023-05-19T06:52:47;103012.07;;;16.88;53.17
65659;BME280;60181;53.258;6.932;2023-05-19T06:56:51;103012.50;;;17.10;52.64
65659;BME280;60181;53.258;6.932;2023-05-19T07:00:55;103013.88;;;17.30;52.54
65659;BME280;60181;53.258;6.932;2023-05-19T07:04:59;103014.40;;;17.48;52.45
65659;BME280;60181;53.258;6.932;2023-05-19T07:09:03;103015.58;;;17.63;52.13
65659;BME280;60181;53.258;6.932;2023-05-19T07:13:07;103014.69;;;17.77;51.99
65659;BME280;60181;53.258;6.932;2023-05-19T07:17:11;103014.88;;;17.92;51.86
65659;BME280;60181;53.258;6.932;2023-05-19T07:21:15;103016.46;;;18.04;51.73
65659;BME280;60181;53.258;6.932;2023-05-19T07:25:19;103016.69;;;18.16;51.30
65659;BME280;60181;53.258;6.932;2023-05-19T07:29:23;103016.37;;;18.27;50.90
65659;BME280;60181;53.258;6.932;2023-05-19T07:33:27;103016.56;;;18.36;50.99
65659;BME280;60181;53.258;6.932;2023-05-19T07:37:31;103016.46;;;18.46;50.28
65659;BME280;60181;53.258;6.932;2023-05-19T07:41:35;103015.08;;;18.53;49.79
65659;BME280;60181;53.258;6.932;2023-05-19T07:45:39;103014.60;;;18.62;49.55
65659;BME280;60181;53.258;6.932;2023-05-19T07:49:43;103014.95;;;18.65;49.00
65659;BME280;60181;53.258;6.932;2023-05-19T07:53:47;103014.86;;;18.65;48.50
65659;BME280;60181;53.258;6.932;2023-05-19T07:57:51;103011.95;;;18.65;48.51
65659;BME280;60181;53.258;6.932;2023-05-19T08:01:55;103009.28;;;18.67;48.75
65659;BME280;60181;53.258;6.932;2023-05-19T08:05:59;103006.48;;;18.71;49.15
65659;BME280;60181;53.258;6.932;2023-05-19T08:10:03;103004.37;;;18.75;49.19
65659;BME280;60181;53.258;6.932;2023-05-19T08:14:07;103001.55;;;18.78;49.46
65659;BME280;60181;53.258;6.932;2023-05-19T08:18:11;102997.97;;;18.81;49.61
65659;BME280;60181;53.258;6.932;2023-05-19T08:22:15;102994.54;;;18.82;50.02
65659;BME280;60181;53.258;6.932;2023-05-19T08:26:19;102991.97;;;18.83;50.19
65659;BME280;60181;53.258;6.932;2023-05-19T08:30:23;102989.58;;;18.81;49.93
65659;BME280;60181;53.258;6.932;2023-05-19T08:34:27;102988.73;;;18.78;49.78
65659;BME280;60181;53.258;6.932;2023-05-19T08:38:31;102987.55;;;18.76;49.36
65659;BME280;60181;53.258;6.932;2023-05-19T08:42:35;102985.99;;;18.74;49.38
65659;BME280;60181;53.258;6.932;2023-05-19T08:46:39;102984.34;;;18.72;49.42
65659;BME280;60181;53.258;6.932;2023-05-19T08:50:44;102982.98;;;18.70;49.79
65659;BME280;60181;53.258;6.932;2023-05-19T08:54:54;102980.15;;;18.67;49.39
65659;BME280;60181;53.258;6.932;2023-05-19T08:58:51;102976.83;;;18.62;48.84
65659;BME280;60181;53.258;6.932;2023-05-19T09:02:55;102973.51;;;18.56;49.97
65659;BME280;60181;53.258;6.932;2023-05-19T09:06:59;102970.62;;;18.50;50.06
65659;BME280;60181;53.258;6.932;2023-05-19T09:11:03;102967.48;;;18.43;50.47
65659;BME280;60181;53.258;6.932;2023-05-19T09:15:07;102964.58;;;18.37;50.16
65659;BME280;60181;53.258;6.932;2023-05-19T09:19:12;102961.79;;;18.33;49.60
65659;BME280;60181;53.258;6.932;2023-05-19T09:23:15;102963.10;;;18.30;50.01
65659;BME280;60181;53.258;6.932;2023-05-19T09:27:21;102959.69;;;18.23;49.17
65659;BME280;60181;53.258;6.932;2023-05-19T09:31:23;102957.42;;;18.17;48.77
65659;BME280;60181;53.258;6.932;2023-05-19T09:35:26;102954.85;;;18.11;48.04
65659;BME280;60181;53.258;6.932;2023-05-19T09:39:30;102951.97;;;18.07;47.75
65659;BME280;60181;53.258;6.932;2023-05-19T09:43:34;102947.11;;;18.03;47.67
65659;BME280;60181;53.258;6.932;2023-05-19T09:47:39;102942.85;;;18.01;45.14
65659;BME280;60181;53.258;6.932;2023-05-19T09:51:42;102937.73;;;18.03;47.48
65659;BME280;60181;53.258;6.932;2023-05-19T09:55:47;102934.33;;;18.05;47.55
65659;BME280;60181;53.258;6.932;2023-05-19T09:59:50;102931.53;;;18.06;47.73
65659;BME280;60181;53.258;6.932;2023-05-19T10:03:54;102927.89;;;18.06;47.62
65659;BME280;60181;53.258;6.932;2023-05-19T10:07:58;102924.57;;;18.06;47.81
65659;BME280;60181;53.258;6.932;2023-05-19T10:12:03;102923.00;;;18.06;47.95
65659;BME280;60181;53.258;6.932;2023-05-19T10:16:07;102920.89;;;18.05;47.90
65659;BME280;60181;53.258;6.932;2023-05-19T10:20:15;102917.25;;;18.03;47.63
65659;BME280;60181;53.258;6.932;2023-05-19T10:24:14;102914.15;;;18.01;48.18
65659;BME280;60181;53.258;6.932;2023-05-19T10:28:18;102910.44;;;17.99;48.12
65659;BME280;60181;53.258;6.932;2023-05-19T10:32:23;102907.85;;;17.97;48.12
65659;BME280;60181;53.258;6.932;2023-05-19T10:36:38;102905.83;;;17.94;48.27
65659;BME280;60181;53.258;6.932;2023-05-19T10:40:35;102903.20;;;17.91;48.13
65659;BME280;60181;53.258;6.932;2023-05-19T10:44:57;102902.22;;;17.89;48.46
65659;BME280;60181;53.258;6.932;2023-05-19T10:48:38;102900.57;;;17.87;48.57
65659;BME280;60181;53.258;6.932;2023-05-19T10:52:42;102897.94;;;17.84;48.63
65659;BME280;60181;53.258;6.932;2023-05-19T10:56:46;102895.54;;;17.82;48.66
65659;BME280;60181;53.258;6.932;2023-05-19T11:00:51;102893.15;;;17.80;48.86
65659;BME280;60181;53.258;6.932;2023-05-19T11:04:54;102892.50;;;17.77;48.84
65659;BME280;60181;53.258;6.932;2023-05-19T11:09:10;102892.02;;;17.76;48.48
65659;BME280;60181;53.258;6.932;2023-05-19T11:13:03;102889.75;;;17.74;48.71
65659;BME280;60181;53.258;6.932;2023-05-19T11:17:06;102888.22;;;17.73;48.73
65659;BME280;60181;53.258;6.932;2023-05-19T11:21:10;102885.36;;;17.72;48.85
65659;BME280;60181;53.258;6.932;2023-05-19T11:25:16;102882.48;;;17.71;48.94
65659;BME280;60181;53.258;6.932;2023-05-19T11:29:18;102880.37;;;17.69;47.30
65659;BME280;60181;53.258;6.932;2023-05-19T11:33:23;102879.02;;;17.68;47.68
65659;BME280;60181;53.258;6.932;2023-05-19T11:37:26;102875.83;;;17.66;47.78
65659;BME280;60181;53.258;6.932;2023-05-19T11:41:30;102873.39;;;17.66;48.60
65659;BME280;60181;53.258;6.932;2023-05-19T11:45:34;102870.19;;;17.66;48.57
65659;BME280;60181;53.258;6.932;2023-05-19T11:49:41;102868.75;;;17.66;47.60
65659;BME280;60181;53.258;6.932;2023-05-19T11:53:42;102868.19;;;17.63;46.89
65659;BME280;60181;53.258;6.932;2023-05-19T11:57:55;102866.33;;;17.61;46.39
65659;BME280;60181;53.258;6.932;2023-05-19T12:01:50;102865.14;;;17.59;46.96
65659;BME280;60181;53.258;6.932;2023-05-19T12:05:54;102862.12;;;17.58;46.75
65659;BME280;60181;53.258;6.932;2023-05-19T12:09:58;102859.22;;;17.58;46.70
65659;BME280;60181;53.258;6.932;2023-05-19T12:14:02;102854.96;;;17.59;48.19
65659;BME280;60181;53.258;6.932;2023-05-19T12:18:06;102853.53;;;17.61;47.72
65659;BME280;60181;53.258;6.932;2023-05-19T12:22:10;102851.22;;;17.64;50.32
65659;BME280;60181;53.258;6.932;2023-05-19T12:26:14;102851.71;;;17.69;54.30
65659;BME280;60181;53.258;6.932;2023-05-19T12:30:20;102850.51;;;17.73;56.07
65659;BME280;60181;53.258;6.932;2023-05-19T12:34:22;102848.71;;;17.77;55.28
65659;BME280;60181;53.258;6.932;2023-05-19T12:38:26;102846.15;;;17.81;54.63
65659;BME280;60181;53.258;6.932;2023-05-19T12:42:30;102844.10;;;17.83;53.86
65659;BME280;60181;53.258;6.932;2023-05-19T12:46:34;102841.98;;;17.85;53.77
65659;BME280;60181;53.258;6.932;2023-05-19T12:50:38;102841.76;;;17.85;51.70
65659;BME280;60181;53.258;6.932;2023-05-19T12:54:42;102839.79;;;17.84;48.35
65659;BME280;60181;53.258;6.932;2023-05-19T12:58:46;102837.73;;;17.82;48.45
65659;BME280;60181;53.258;6.932;2023-05-19T13:02:54;102835.71;;;17.80;48.92
65659;BME280;60181;53.258;6.932;2023-05-19T13:06:54;102833.28;;;17.79;49.76
65659;BME280;60181;53.258;6.932;2023-05-19T13:10:58;102829.30;;;17.79;49.62
65659;BME280;60181;53.258;6.932;2023-05-19T13:15:02;102826.20;;;17.78;50.15
65659;BME280;60181;53.258;6.932;2023-05-19T13:19:06;102823.21;;;17.78;49.56
65659;BME280;60181;53.258;6.932;2023-05-19T13:23:10;102819.52;;;17.79;50.63
65659;BME280;60181;53.258;6.932;2023-05-19T13:27:14;102815.72;;;17.83;50.44
65659;BME280;60181;53.258;6.932;2023-05-19T13:31:18;102812.17;;;17.86;50.47
65659;BME280;60181;53.258;6.932;2023-05-19T13:35:22;102809.58;;;17.88;50.66
65659;BME280;60181;53.258;6.932;2023-05-19T13:39:26;102808.13;;;17.89;50.73
65659;BME280;60181;53.258;6.932;2023-05-19T13:43:30;102806.38;;;17.89;51.06
65659;BME280;60181;53.258;6.932;2023-05-19T13:47:34;102803.98;;;17.89;51.05
65659;BME280;60181;53.258;6.932;2023-05-19T13:51:40;102802.03;;;17.90;50.96
65659;BME280;60181;53.258;6.932;2023-05-19T13:55:42;102799.82;;;17.91;51.02
65659;BME280;60181;53.258;6.932;2023-05-19T13:59:46;102797.69;;;17.93;50.60
65659;BME280;60181;53.258;6.932;2023-05-19T14:03:50;102795.32;;;17.94;50.74
65659;BME280;60181;53.258;6.932;2023-05-19T14:07:54;102793.70;;;17.95;50.69
65659;BME280;60181;53.258;6.932;2023-05-19T14:11:58;102791.58;;;17.96;50.87
65659;BME280;60181;53.258;6.932;2023-05-19T14:16:02;102790.08;;;17.96;50.78
65659;BME280;60181;53.258;6.932;2023-05-19T14:20:06;102786.84;;;17.96;50.82
65659;BME280;60181;53.258;6.932;2023-05-19T14:24:10;102784.19;;;17.95;50.77
65659;BME280;60181;53.258;6.932;2023-05-19T14:28:14;102780.52;;;17.95;50.90
65659;BME280;60181;53.258;6.932;2023-05-19T14:32:18;102776.38;;;17.94;51.03
65659;BME280;60181;53.258;6.932;2023-05-19T14:36:22;102771.45;;;17.93;50.90
65659;BME280;60181;53.258;6.932;2023-05-19T14:40:26;102768.80;;;17.93;50.84
65659;BME280;60181;53.258;6.932;2023-05-19T14:44:30;102765.64;;;17.93;50.81
65659;BME280;60181;53.258;6.932;2023-05-19T14:48:34;102763.73;;;17.94;50.37
65659;BME280;60181;53.258;6.932;2023-05-19T14:52:38;102761.83;;;17.94;49.87
65659;BME280;60181;53.258;6.932;2023-05-19T14:56:42;102761.36;;;17.94;49.88
65659;BME280;60181;53.258;6.932;2023-05-19T15:00:46;102759.88;;;17.95;49.90
65659;BME280;60181;53.258;6.932;2023-05-19T15:04:50;102757.75;;;17.96;49.82
65659;BME280;60181;53.258;6.932;2023-05-19T15:08:54;102756.59;;;17.96;49.54
65659;BME280;60181;53.258;6.932;2023-05-19T15:12:58;102755.18;;;17.95;50.12
65659;BME280;60181;53.258;6.932;2023-05-19T15:17:02;102754.52;;;17.95;50.16
65659;BME280;60181;53.258;6.932;2023-05-19T15:21:06;102754.17;;;17.96;50.47
65659;BME280;60181;53.258;6.932;2023-05-19T15:25:10;102752.69;;;17.96;50.60
65659;BME280;60181;53.258;6.932;2023-05-19T15:29:14;102750.54;;;17.96;50.58
65659;BME280;60181;53.258;6.932;2023-05-19T15:33:18;102748.22;;;17.96;50.73
65659;BME280;60181;53.258;6.932;2023-05-19T15:37:22;102745.75;;;17.94;50.99
65659;BME280;60181;53.258;6.932;2023-05-19T15:41:26;102744.25;;;17.94;50.89
65659;BME280;60181;53.258;6.932;2023-05-19T15:45:30;102743.54;;;17.95;50.96
65659;BME280;60181;53.258;6.932;2023-05-19T15:49:34;102741.70;;;17.97;51.15
65659;BME280;60181;53.258;6.932;2023-05-19T15:53:38;102739.51;;;17.98;51.50
65659;BME280;60181;53.258;6.932;2023-05-19T15:57:42;102738.83;;;18.00;51.59
65659;BME280;60181;53.258;6.932;2023-05-19T16:01:46;102737.54;;;18.02;51.78
65659;BME280;60181;53.258;6.932;2023-05-19T16:05:51;102737.51;;;18.04;51.90
65659;BME280;60181;53.258;6.932;2023-05-19T16:09:54;102736.25;;;18.03;52.48
65659;BME280;60181;53.258;6.932;2023-05-19T16:13:58;102736.16;;;18.03;52.19
65659;BME280;60181;53.258;6.932;2023-05-19T16:18:02;102735.55;;;18.02;52.33
65659;BME280;60181;53.258;6.932;2023-05-19T16:22:06;102735.14;;;18.01;52.25
65659;BME280;60181;53.258;6.932;2023-05-19T16:26:10;102733.67;;;18.00;52.18
65659;BME280;60181;53.258;6.932;2023-05-19T16:30:14;102732.47;;;17.98;51.93
65659;BME280;60181;53.258;6.932;2023-05-19T16:34:18;102731.20;;;17.97;52.12
65659;BME280;60181;53.258;6.932;2023-05-19T16:38:22;102730.91;;;17.97;52.01
65659;BME280;60181;53.258;6.932;2023-05-19T16:42:26;102729.92;;;17.97;51.85
65659;BME280;60181;53.258;6.932;2023-05-19T16:46:30;102729.48;;;17.96;51.91
65659;BME280;60181;53.258;6.932;2023-05-19T16:50:34;102731.13;;;17.96;51.97
65659;BME280;60181;53.258;6.932;2023-05-19T16:54:38;102733.42;;;17.95;52.17
65659;BME280;60181;53.258;6.932;2023-05-19T16:58:42;102735.96;;;17.94;52.27
65659;BME280;60181;53.258;6.932;2023-05-19T17:02:46;102738.04;;;17.93;52.15
65659;BME280;60181;53.258;6.932;2023-05-19T17:06:50;102740.66;;;17.93;52.26
65659;BME280;60181;53.258;6.932;2023-05-19T17:10:54;102742.79;;;17.92;52.31
65659;BME280;60181;53.258;6.932;2023-05-19T17:14:58;102745.19;;;17.91;52.30
65659;BME280;60181;53.258;6.932;2023-05-19T17:19:02;102746.89;;;17.90;52.54
65659;BME280;60181;53.258;6.932;2023-05-19T17:23:06;102749.93;;;17.89;52.48
65659;BME280;60181;53.258;6.932;2023-05-19T17:27:10;102751.89;;;17.88;52.46
65659;BME280;60181;53.258;6.932;2023-05-19T17:31:14;102754.02;;;17.87;52.59
65659;BME280;60181;53.258;6.932;2023-05-19T17:35:18;102757.41;;;17.86;52.61
65659;BME280;60181;53.258;6.932;2023-05-19T17:39:22;102760.28;;;17.86;52.59
65659;BME280;60181;53.258;6.932;2023-05-19T17:43:26;102763.23;;;17.85;52.71
65659;BME280;60181;53.258;6.932;2023-05-19T17:47:30;102766.26;;;17.84;52.76
65659;BME280;60181;53.258;6.932;2023-05-19T17:51:34;102767.90;;;17.83;52.76
65659;BME280;60181;53.258;6.932;2023-05-19T17:55:38;102769.19;;;17.82;52.74
65659;BME280;60181;53.258;6.932;2023-05-19T17:59:42;102771.39;;;17.81;52.78
65659;BME280;60181;53.258;6.932;2023-05-19T18:03:46;102774.01;;;17.79;52.92
65659;BME280;60181;53.258;6.932;2023-05-19T18:07:50;102775.55;;;17.78;52.91
65659;BME280;60181;53.258;6.932;2023-05-19T18:11:54;102778.25;;;17.77;52.93
65659;BME280;60181;53.258;6.932;2023-05-19T18:15:58;102781.13;;;17.76;52.94
65659;BME280;60181;53.258;6.932;2023-05-19T18:20:02;102784.23;;;17.75;52.94
65659;BME280;60181;53.258;6.932;2023-05-19T18:24:06;102786.45;;;17.73;52.98
65659;BME280;60181;53.258;6.932;2023-05-19T18:28:10;102789.20;;;17.72;52.97
65659;BME280;60181;53.258;6.932;2023-05-19T18:32:14;102793.21;;;17.70;53.04
65659;BME280;60181;53.258;6.932;2023-05-19T18:36:18;102795.75;;;17.69;53.09
65659;BME280;60181;53.258;6.932;2023-05-19T18:40:22;102799.01;;;17.67;53.15
65659;BME280;60181;53.258;6.932;2023-05-19T18:44:26;102803.03;;;17.65;53.26
65659;BME280;60181;53.258;6.932;2023-05-19T18:48:30;102809.09;;;17.63;53.34
65659;BME280;60181;53.258;6.932;2023-05-19T18:52:34;102813.17;;;17.61;53.39
65659;BME280;60181;53.258;6.932;2023-05-19T18:56:38;102816.61;;;17.60;53.36
65659;BME280;60181;53.258;6.932;2023-05-19T19:00:42;102819.46;;;17.58;53.48
65659;BME280;60181;53.258;6.932;2023-05-19T19:04:46;102821.37;;;17.56;53.56
65659;BME280;60181;53.258;6.932;2023-05-19T19:08:50;102822.22;;;17.54;53.59
65659;BME280;60181;53.258;6.932;2023-05-19T19:12:54;102824.07;;;17.52;53.65
65659;BME280;60181;53.258;6.932;2023-05-19T19:16:58;102825.17;;;17.50;53.73
65659;BME280;60181;53.258;6.932;2023-05-19T19:21:02;102826.27;;;17.48;53.76
65659;BME280;60181;53.258;6.932;2023-05-19T19:25:06;102828.27;;;17.46;53.83
65659;BME280;60181;53.258;6.932;2023-05-19T19:29:10;102830.13;;;17.44;53.95
65659;BME280;60181;53.258;6.932;2023-05-19T19:33:14;102831.57;;;17.43;53.94
65659;BME280;60181;53.258;6.932;2023-05-19T19:37:18;102832.35;;;17.41;53.96
65659;BME280;60181;53.258;6.932;2023-05-19T19:41:22;102833.89;;;17.40;54.05
65659;BME280;60181;53.258;6.932;2023-05-19T19:45:26;102834.81;;;17.38;54.11
65659;BME280;60181;53.258;6.932;2023-05-19T19:49:30;102836.68;;;17.37;54.22
65659;BME280;60181;53.258;6.932;2023-05-19T19:53:34;102838.22;;;17.36;54.19
65659;BME280;60181;53.258;6.932;2023-05-19T19:57:38;102840.83;;;17.35;54.32
65659;BME280;60181;53.258;6.932;2023-05-19T20:01:42;102842.96;;;17.34;54.32
65659;BME280;60181;53.258;6.932;2023-05-19T20:05:46;102845.41;;;17.33;54.41
65659;BME280;60181;53.258;6.932;2023-05-19T20:09:50;102847.69;;;17.32;54.40
65659;BME280;60181;53.258;6.932;2023-05-19T20:13:54;102850.33;;;17.31;54.49
65659;BME280;60181;53.258;6.932;2023-05-19T20:17:58;102852.70;;;17.30;54.49
65659;BME280;60181;53.258;6.932;2023-05-19T20:22:02;102853.16;;;17.29;54.47
65659;BME280;60181;53.258;6.932;2023-05-19T20:26:06;102855.62;;;17.28;54.58
65659;BME280;60181;53.258;6.932;2023-05-19T20:30:10;102858.47;;;17.27;54.66
65659;BME280;60181;53.258;6.932;2023-05-19T20:34:14;102860.38;;;17.26;54.68
65659;BME280;60181;53.258;6.932;2023-05-19T20:38:18;102861.41;;;17.25;54.73
65659;BME280;60181;53.258;6.932;2023-05-19T20:42:22;102861.95;;;17.25;54.77
65659;BME280;60181;53.258;6.932;2023-05-19T20:46:26;102861.17;;;17.24;54.80
65659;BME280;60181;53.258;6.932;2023-05-19T20:50:30;102862.07;;;17.23;54.79
65659;BME280;60181;53.258;6.932;2023-05-19T20:54:34;102863.38;;;17.22;54.80
65659;BME280;60181;53.258;6.932;2023-05-19T20:58:38;102866.48;;;17.22;54.78
65659;BME280;60181;53.258;6.932;2023-05-19T21:02:42;102868.88;;;17.21;54.82
65659;BME280;60181;53.258;6.932;2023-05-19T21:06:46;102870.01;;;17.20;54.86
65659;BME280;60181;53.258;6.932;2023-05-19T21:10:50;102870.34;;;17.20;54.92
65659;BME280;60181;53.258;6.932;2023-05-19T21:14:54;102871.55;;;17.19;54.90
65659;BME280;60181;53.258;6.932;2023-05-19T21:18:58;102872.75;;;17.18;54.93
65659;BME280;60181;53.258;6.932;2023-05-19T21:23:02;102873.33;;;17.18;55.00
65659;BME280;60181;53.258;6.932;2023-05-19T21:27:06;102873.83;;;17.17;54.96